sensor_id;sensor_type;location;lat;lon;timestamp;temperature;humidity
68801;SHT31;55784;50.734;7.086;2023-06-19T00:00:35;22.37;77.47
68801;SHT31;55784;50.734;7.086;2023-06-19T00:03:01;22.40;77.47
68801;SHT31;55784;50.734;7.086;2023-06-19T00:05:26;22.43;77.96
68801;SHT31;55784;50.734;7.086;2023-06-19T00:07:52;22.41;78.25
68801;SHT31;55784;50.734;7.086;2023-06-19T00:10:17;22.36;78.69
68801;SHT31;55784;50.734;7.086;2023-06-19T00:12:42;22.35;79.30
68801;SHT31;55784;50.734;7.086;2023-06-19T00:15:08;22.35;79.22
68801;SHT31;55784;50.734;7.086;2023-06-19T00:17:35;22.29;79.86
68801;SHT31;55784;50.734;7.086;2023-06-19T00:20:03;22.30;79.92
68801;SHT31;55784;50.734;7.086;2023-06-19T00:22:29;22.28;79.79
68801;SHT31;55784;50.734;7.086;2023-06-19T00:24:54;22.21;79.61
68801;SHT31;55784;50.734;7.086;2023-06-19T00:27:19;22.21;79.77
68801;SHT31;55784;50.734;7.086;2023-06-19T00:29:45;22.19;79.80
68801;SHT31;55784;50.734;7.086;2023-06-19T00:32:10;22.21;79.93
68801;SHT31;55784;50.734;7.086;2023-06-19T00:34:36;22.19;80.46
68801;SHT31;55784;50.734;7.086;2023-06-19T00:37:02;22.13;80.51
68801;SHT31;55784;50.734;7.086;2023-06-19T00:39:28;22.06;80.95
68801;SHT31;55784;50.734;7.086;2023-06-19T00:41:54;22.13;80.88
68801;SHT31;55784;50.734;7.086;2023-06-19T00:44:20;22.09;80.48
68801;SHT31;55784;50.734;7.086;2023-06-19T00:46:45;22.05;80.79
68801;SHT31;55784;50.734;7.086;2023-06-19T00:49:12;22.06;80.49
68801;SHT31;55784;50.734;7.086;2023-06-19T00:51:38;22.05;80.46
68801;SHT31;55784;50.734;7.086;2023-06-19T00:54:04;22.09;80.57
68801;SHT31;55784;50.734;7.086;2023-06-19T00:56:31;22.09;80.52
68801;SHT31;55784;50.734;7.086;2023-06-19T00:58:56;22.10;80.40
68801;SHT31;55784;50.734;7.086;2023-06-19T01:01:22;22.09;80.12
68801;SHT31;55784;50.734;7.086;2023-06-19T01:03:49;22.09;79.71
68801;SHT31;55784;50.734;7.086;2023-06-19T01:06:21;22.10;79.55
68801;SHT31;55784;50.734;7.086;2023-06-19T01:08:56;22.16;79.23
68801;SHT31;55784;50.734;7.086;2023-06-19T01:11:29;22.17;79.53
68801;SHT31;55784;50.734;7.086;2023-06-19T01:14:09;22.23;79.80
68801;SHT31;55784;50.734;7.086;2023-06-19T01:16:38;22.28;79.63
68801;SHT31;55784;50.734;7.086;2023-06-19T01:19:03;22.26;79.64
68801;SHT31;55784;50.734;7.086;2023-06-19T01:21:30;22.24;79.27
68801;SHT31;55784;50.734;7.086;2023-06-19T01:23:56;22.23;79.43
68801;SHT31;55784;50.734;7.086;2023-06-19T01:26:23;22.20;79.36
68801;SHT31;55784;50.734;7.086;2023-06-19T01:28:51;22.20;79.42
68801;SHT31;55784;50.734;7.086;2023-06-19T01:31:29;22.19;78.66
68801;SHT31;55784;50.734;7.086;2023-06-19T01:33:57;22.19;78.68
68801;SHT31;55784;50.734;7.086;2023-06-19T01:36:23;22.19;78.77
68801;SHT31;55784;50.734;7.086;2023-06-19T01:38:50;22.17;78.87
68801;SHT31;55784;50.734;7.086;2023-06-19T01:41:17;22.17;78.64
68801;SHT31;55784;50.734;7.086;2023-06-19T01:43:45;22.20;78.78
68801;SHT31;55784;50.734;7.086;2023-06-19T01:46:10;22.19;78.98
68801;SHT31;55784;50.734;7.086;2023-06-19T01:48:39;22.20;79.28
68801;SHT31;55784;50.734;7.086;2023-06-19T01:51:04;22.21;79.11
68801;SHT31;55784;50.734;7.086;2023-06-19T01:53:31;22.26;78.40
68801;SHT31;55784;50.734;7.086;2023-06-19T01:55:57;22.28;78.00
68801;SHT31;55784;50.734;7.086;2023-06-19T01:58:23;22.30;77.94
68801;SHT31;55784;50.734;7.086;2023-06-19T02:00:48;22.37;77.66
68801;SHT31;55784;50.734;7.086;2023-06-19T02:03:13;22.40;77.36
68801;SHT31;55784;50.734;7.086;2023-06-19T02:05:39;22.43;76.93
68801;SHT31;55784;50.734;7.086;2023-06-19T02:08:05;22.46;76.94
68801;SHT31;55784;50.734;7.086;2023-06-19T02:10:31;22.47;76.91
68801;SHT31;55784;50.734;7.086;2023-06-19T02:12:56;22.49;76.97
68801;SHT31;55784;50.734;7.086;2023-06-19T02:15:22;22.50;76.51
68801;SHT31;55784;50.734;7.086;2023-06-19T02:17:47;22.50;75.82
68801;SHT31;55784;50.734;7.086;2023-06-19T02:20:12;22.46;74.98
68801;SHT31;55784;50.734;7.086;2023-06-19T02:22:39;22.47;74.86
68801;SHT31;55784;50.734;7.086;2023-06-19T02:25:05;22.47;75.15
68801;SHT31;55784;50.734;7.086;2023-06-19T02:27:30;22.47;75.45
68801;SHT31;55784;50.734;7.086;2023-06-19T02:29:56;22.49;75.20
68801;SHT31;55784;50.734;7.086;2023-06-19T02:32:21;22.50;75.07
68801;SHT31;55784;50.734;7.086;2023-06-19T02:34:46;22.49;75.36
68801;SHT31;55784;50.734;7.086;2023-06-19T02:37:11;22.44;75.49
68801;SHT31;55784;50.734;7.086;2023-06-19T02:39:37;22.41;75.93
68801;SHT31;55784;50.734;7.086;2023-06-19T02:42:03;22.33;75.42
68801;SHT31;55784;50.734;7.086;2023-06-19T02:44:28;22.26;75.22
68801;SHT31;55784;50.734;7.086;2023-06-19T02:46:54;22.19;74.90
68801;SHT31;55784;50.734;7.086;2023-06-19T02:49:19;22.12;75.17
68801;SHT31;55784;50.734;7.086;2023-06-19T02:51:44;22.06;76.13
68801;SHT31;55784;50.734;7.086;2023-06-19T02:54:09;21.95;75.54
68801;SHT31;55784;50.734;7.086;2023-06-19T02:56:35;21.88;75.49
68801;SHT31;55784;50.734;7.086;2023-06-19T02:59:00;21.81;75.52
68801;SHT31;55784;50.734;7.086;2023-06-19T03:01:25;21.74;76.09
68801;SHT31;55784;50.734;7.086;2023-06-19T03:03:51;21.66;76.56
68801;SHT31;55784;50.734;7.086;2023-06-19T03:06:17;21.62;76.32
68801;SHT31;55784;50.734;7.086;2023-06-19T03:08:43;21.54;76.02
68801;SHT31;55784;50.734;7.086;2023-06-19T03:11:08;21.51;76.27
68801;SHT31;55784;50.734;7.086;2023-06-19T03:13:47;21.47;76.14
68801;SHT31;55784;50.734;7.086;2023-06-19T03:16:13;21.45;75.74
68801;SHT31;55784;50.734;7.086;2023-06-19T03:18:40;21.41;75.56
68801;SHT31;55784;50.734;7.086;2023-06-19T03:21:05;21.51;74.87
68801;SHT31;55784;50.734;7.086;2023-06-19T03:23:30;21.52;73.71
68801;SHT31;55784;50.734;7.086;2023-06-19T03:25:56;21.55;72.48
68801;SHT31;55784;50.734;7.086;2023-06-19T03:28:23;21.51;71.67
68801;SHT31;55784;50.734;7.086;2023-06-19T03:30:48;21.59;71.47
68801;SHT31;55784;50.734;7.086;2023-06-19T03:33:13;21.55;71.42
68801;SHT31;55784;50.734;7.086;2023-06-19T03:35:39;21.55;71.64
68801;SHT31;55784;50.734;7.086;2023-06-19T03:38:04;21.57;71.60
68801;SHT31;55784;50.734;7.086;2023-06-19T03:40:29;21.57;71.69
68801;SHT31;55784;50.734;7.086;2023-06-19T03:42:54;21.57;71.72
68801;SHT31;55784;50.734;7.086;2023-06-19T03:45:20;21.63;70.86
68801;SHT31;55784;50.734;7.086;2023-06-19T03:47:45;21.66;71.19
68801;SHT31;55784;50.734;7.086;2023-06-19T03:50:10;21.69;70.97
68801;SHT31;55784;50.734;7.086;2023-06-19T03:52:36;21.71;71.15
68801;SHT31;55784;50.734;7.086;2023-06-19T03:55:03;21.68;71.08
68801;SHT31;55784;50.734;7.086;2023-06-19T03:57:28;21.71;70.71
68801;SHT31;55784;50.734;7.086;2023-06-19T03:59:53;21.74;70.95
68801;SHT31;55784;50.734;7.086;2023-06-19T04:02:19;21.74;70.71
68801;SHT31;55784;50.734;7.086;2023-06-19T04:04:44;21.81;70.89
68801;SHT31;55784;50.734;7.086;2023-06-19T04:07:09;21.86;70.53
68801;SHT31;55784;50.734;7.086;2023-06-19T04:09:35;21.95;69.51
68801;SHT31;55784;50.734;7.086;2023-06-19T04:12:01;22.03;69.28
68801;SHT31;55784;50.734;7.086;2023-06-19T04:14:26;22.13;69.19
68801;SHT31;55784;50.734;7.086;2023-06-19T04:16:52;22.17;69.02
68801;SHT31;55784;50.734;7.086;2023-06-19T04:19:17;22.28;68.46
68801;SHT31;55784;50.734;7.086;2023-06-19T04:21:42;22.44;68.08
68801;SHT31;55784;50.734;7.086;2023-06-19T04:24:08;22.70;67.39
68801;SHT31;55784;50.734;7.086;2023-06-19T04:26:34;22.90;66.98
68801;SHT31;55784;50.734;7.086;2023-06-19T04:29:00;23.04;66.18
68801;SHT31;55784;50.734;7.086;2023-06-19T04:31:26;23.32;65.60
68801;SHT31;55784;50.734;7.086;2023-06-19T04:33:51;23.37;65.21
68801;SHT31;55784;50.734;7.086;2023-06-19T04:36:17;23.49;64.78
68801;SHT31;55784;50.734;7.086;2023-06-19T04:38:44;23.56;64.86
68801;SHT31;55784;50.734;7.086;2023-06-19T04:41:10;23.80;64.11
68801;SHT31;55784;50.734;7.086;2023-06-19T04:43:35;23.86;63.87
68801;SHT31;55784;50.734;7.086;2023-06-19T04:46:00;24.06;63.88
68801;SHT31;55784;50.734;7.086;2023-06-19T04:48:29;23.95;63.63
68801;SHT31;55784;50.734;7.086;2023-06-19T04:50:54;24.05;63.63
68801;SHT31;55784;50.734;7.086;2023-06-19T04:53:21;24.05;63.95
68801;SHT31;55784;50.734;7.086;2023-06-19T04:55:46;23.92;64.00
68801;SHT31;55784;50.734;7.086;2023-06-19T04:58:11;23.46;64.97
68801;SHT31;55784;50.734;7.086;2023-06-19T05:00:37;23.05;66.00
68801;SHT31;55784;50.734;7.086;2023-06-19T05:03:02;23.08;66.07
68801;SHT31;55784;50.734;7.086;2023-06-19T05:05:28;23.19;66.09
68801;SHT31;55784;50.734;7.086;2023-06-19T05:07:53;23.18;66.24
68801;SHT31;55784;50.734;7.086;2023-06-19T05:10:19;23.12;66.12
68801;SHT31;55784;50.734;7.086;2023-06-19T05:12:44;23.28;66.04
68801;SHT31;55784;50.734;7.086;2023-06-19T05:15:10;23.12;66.93
68801;SHT31;55784;50.734;7.086;2023-06-19T05:17:36;23.38;66.50
68801;SHT31;55784;50.734;7.086;2023-06-19T05:20:04;23.32;66.59
68801;SHT31;55784;50.734;7.086;2023-06-19T05:22:32;23.66;65.87
68801;SHT31;55784;50.734;7.086;2023-06-19T05:24:59;23.52;66.28
68801;SHT31;55784;50.734;7.086;2023-06-19T05:27:27;23.75;65.78
68801;SHT31;55784;50.734;7.086;2023-06-19T05:29:52;23.72;66.10
68801;SHT31;55784;50.734;7.086;2023-06-19T05:32:18;23.70;66.35
68801;SHT31;55784;50.734;7.086;2023-06-19T05:34:43;24.10;65.66
68801;SHT31;55784;50.734;7.086;2023-06-19T05:37:08;24.61;64.12
68801;SHT31;55784;50.734;7.086;2023-06-19T05:39:34;25.23;63.10
68801;SHT31;55784;50.734;7.086;2023-06-19T05:42:02;25.76;61.69
68801;SHT31;55784;50.734;7.086;2023-06-19T05:44:27;25.91;61.50
68801;SHT31;55784;50.734;7.086;2023-06-19T05:46:52;25.94;61.21
68801;SHT31;55784;50.734;7.086;2023-06-19T05:49:19;26.20;60.95
68801;SHT31;55784;50.734;7.086;2023-06-19T05:51:44;26.52;60.01
68801;SHT31;55784;50.734;7.086;2023-06-19T05:54:10;26.79;59.39
68801;SHT31;55784;50.734;7.086;2023-06-19T05:56:35;26.56;59.85
68801;SHT31;55784;50.734;7.086;2023-06-19T05:59:01;26.59;59.87
68801;SHT31;55784;50.734;7.086;2023-06-19T06:01:27;26.27;60.46
68801;SHT31;55784;50.734;7.086;2023-06-19T06:03:54;26.76;59.26
68801;SHT31;55784;50.734;7.086;2023-06-19T06:06:20;27.16;58.38
68801;SHT31;55784;50.734;7.086;2023-06-19T06:08:45;27.29;57.54
68801;SHT31;55784;50.734;7.086;2023-06-19T06:11:11;27.26;58.46
68801;SHT31;55784;50.734;7.086;2023-06-19T06:16:58;27.35;58.16
68801;SHT31;55784;50.734;7.086;2023-06-19T06:19:23;27.10;58.00
68801;SHT31;55784;50.734;7.086;2023-06-19T06:21:49;26.59;59.47
68801;SHT31;55784;50.734;7.086;2023-06-19T06:24:15;26.54;59.64
68801;SHT31;55784;50.734;7.086;2023-06-19T06:26:40;25.42;62.31
68801;SHT31;55784;50.734;7.086;2023-06-19T06:29:07;25.59;61.91
68801;SHT31;55784;50.734;7.086;2023-06-19T06:31:32;25.97;61.06
68801;SHT31;55784;50.734;7.086;2023-06-19T06:33:57;25.33;61.66
68801;SHT31;55784;50.734;7.086;2023-06-19T06:36:23;25.23;62.52
68801;SHT31;55784;50.734;7.086;2023-06-19T06:38:48;25.07;62.98
68801;SHT31;55784;50.734;7.086;2023-06-19T06:41:14;25.20;62.66
68801;SHT31;55784;50.734;7.086;2023-06-19T06:43:43;25.12;63.53
68801;SHT31;55784;50.734;7.086;2023-06-19T06:46:09;24.40;65.17
68801;SHT31;55784;50.734;7.086;2023-06-19T06:48:35;23.76;66.97
68801;SHT31;55784;50.734;7.086;2023-06-19T06:51:01;23.56;67.55
68801;SHT31;55784;50.734;7.086;2023-06-19T06:53:27;23.70;67.33
68801;SHT31;55784;50.734;7.086;2023-06-19T06:55:53;23.72;67.35
68801;SHT31;55784;50.734;7.086;2023-06-19T06:58:18;23.66;67.40
68801;SHT31;55784;50.734;7.086;2023-06-19T07:00:44;23.97;66.67
68801;SHT31;55784;50.734;7.086;2023-06-19T07:03:09;24.18;66.22
68801;SHT31;55784;50.734;7.086;2023-06-19T07:05:35;24.89;64.37
68801;SHT31;55784;50.734;7.086;2023-06-19T07:08:00;25.18;63.44
68801;SHT31;55784;50.734;7.086;2023-06-19T07:10:26;25.25;63.22
68801;SHT31;55784;50.734;7.086;2023-06-19T07:12:51;25.01;63.90
68801;SHT31;55784;50.734;7.086;2023-06-19T07:15:17;24.72;64.83
68801;SHT31;55784;50.734;7.086;2023-06-19T07:17:44;24.84;64.20
68801;SHT31;55784;50.734;7.086;2023-06-19T07:20:09;25.16;63.41
68801;SHT31;55784;50.734;7.086;2023-06-19T07:22:35;25.08;63.64
68801;SHT31;55784;50.734;7.086;2023-06-19T07:25:01;25.74;61.70
68801;SHT31;55784;50.734;7.086;2023-06-19T07:27:26;25.65;61.45
68801;SHT31;55784;50.734;7.086;2023-06-19T07:29:53;25.98;61.55
68801;SHT31;55784;50.734;7.086;2023-06-19T07:32:18;26.47;60.04
68801;SHT31;55784;50.734;7.086;2023-06-19T07:34:45;26.41;59.73
68801;SHT31;55784;50.734;7.086;2023-06-19T07:37:10;26.72;59.26
68801;SHT31;55784;50.734;7.086;2023-06-19T07:39:42;26.30;59.43
68801;SHT31;55784;50.734;7.086;2023-06-19T07:42:09;26.96;57.69
68801;SHT31;55784;50.734;7.086;2023-06-19T07:44:35;27.27;57.00
68801;SHT31;55784;50.734;7.086;2023-06-19T07:47:01;26.71;58.29
68801;SHT31;55784;50.734;7.086;2023-06-19T07:49:26;26.89;57.35
68801;SHT31;55784;50.734;7.086;2023-06-19T07:51:51;27.42;55.24
68801;SHT31;55784;50.734;7.086;2023-06-19T07:54:17;26.88;55.30
68801;SHT31;55784;50.734;7.086;2023-06-19T07:56:42;27.02;55.50
68801;SHT31;55784;50.734;7.086;2023-06-19T07:59:07;26.54;55.52
68801;SHT31;55784;50.734;7.086;2023-06-19T08:01:33;26.55;55.85
68801;SHT31;55784;50.734;7.086;2023-06-19T08:03:58;26.96;55.20
68801;SHT31;55784;50.734;7.086;2023-06-19T08:06:24;27.05;54.11
68801;SHT31;55784;50.734;7.086;2023-06-19T08:08:49;27.63;53.05
68801;SHT31;55784;50.734;7.086;2023-06-19T08:11:14;27.39;53.42
68801;SHT31;55784;50.734;7.086;2023-06-19T08:13:40;27.56;52.82
68801;SHT31;55784;50.734;7.086;2023-06-19T08:16:06;27.66;52.33
68801;SHT31;55784;50.734;7.086;2023-06-19T08:18:31;27.68;52.14
68801;SHT31;55784;50.734;7.086;2023-06-19T08:20:57;27.53;51.94
68801;SHT31;55784;50.734;7.086;2023-06-19T08:23:22;27.71;51.71
68801;SHT31;55784;50.734;7.086;2023-06-19T08:25:48;27.45;51.97
68801;SHT31;55784;50.734;7.086;2023-06-19T08:28:13;26.95;53.14
68801;SHT31;55784;50.734;7.086;2023-06-19T08:30:38;26.79;52.92
68801;SHT31;55784;50.734;7.086;2023-06-19T08:33:04;26.79;52.87
68801;SHT31;55784;50.734;7.086;2023-06-19T08:35:29;26.74;52.98
68801;SHT31;55784;50.734;7.086;2023-06-19T08:37:54;26.78;52.99
68801;SHT31;55784;50.734;7.086;2023-06-19T08:40:20;26.31;54.42
68801;SHT31;55784;50.734;7.086;2023-06-19T08:42:45;26.64;53.47
68801;SHT31;55784;50.734;7.086;2023-06-19T08:45:10;26.82;52.67
68801;SHT31;55784;50.734;7.086;2023-06-19T08:47:38;26.49;52.58
68801;SHT31;55784;50.734;7.086;2023-06-19T08:50:04;26.55;52.83
68801;SHT31;55784;50.734;7.086;2023-06-19T08:52:30;26.65;52.16
68801;SHT31;55784;50.734;7.086;2023-06-19T08:54:55;26.72;52.33
68801;SHT31;55784;50.734;7.086;2023-06-19T08:57:20;27.02;52.49
68801;SHT31;55784;50.734;7.086;2023-06-19T08:59:50;27.09;51.78
68801;SHT31;55784;50.734;7.086;2023-06-19T09:02:16;27.33;50.73
68801;SHT31;55784;50.734;7.086;2023-06-19T09:04:42;27.40;50.95
68801;SHT31;55784;50.734;7.086;2023-06-19T09:07:08;26.99;52.11
68801;SHT31;55784;50.734;7.086;2023-06-19T09:09:37;26.95;51.62
68801;SHT31;55784;50.734;7.086;2023-06-19T09:12:07;27.02;51.55
68801;SHT31;55784;50.734;7.086;2023-06-19T09:14:42;26.95;52.53
68801;SHT31;55784;50.734;7.086;2023-06-19T09:17:12;27.57;51.05
68801;SHT31;55784;50.734;7.086;2023-06-19T09:19:38;27.77;49.95
68801;SHT31;55784;50.734;7.086;2023-06-19T09:22:06;27.57;50.71
68801;SHT31;55784;50.734;7.086;2023-06-19T09:24:34;27.59;50.51
68801;SHT31;55784;50.734;7.086;2023-06-19T09:27:10;27.93;49.75
68801;SHT31;55784;50.734;7.086;2023-06-19T09:29:40;27.47;50.70
68801;SHT31;55784;50.734;7.086;2023-06-19T09:32:15;27.35;50.94
68801;SHT31;55784;50.734;7.086;2023-06-19T09:34:41;27.36;50.95
68801;SHT31;55784;50.734;7.086;2023-06-19T09:37:07;27.02;50.74
68801;SHT31;55784;50.734;7.086;2023-06-19T09:39:34;26.89;51.12
68801;SHT31;55784;50.734;7.086;2023-06-19T09:42:01;27.09;51.08
68801;SHT31;55784;50.734;7.086;2023-06-19T09:44:31;26.45;52.88
68801;SHT31;55784;50.734;7.086;2023-06-19T09:46:59;26.74;51.93
68801;SHT31;55784;50.734;7.086;2023-06-19T09:49:26;26.54;52.61
68801;SHT31;55784;50.734;7.086;2023-06-19T09:51:54;27.09;51.99
68801;SHT31;55784;50.734;7.086;2023-06-19T09:54:20;27.39;50.85
68801;SHT31;55784;50.734;7.086;2023-06-19T09:56:47;27.54;50.53
68801;SHT31;55784;50.734;7.086;2023-06-19T09:59:16;27.61;50.24
68801;SHT31;55784;50.734;7.086;2023-06-19T10:01:42;27.66;50.39
68801;SHT31;55784;50.734;7.086;2023-06-19T10:04:09;27.67;50.33
68801;SHT31;55784;50.734;7.086;2023-06-19T10:06:46;27.33;50.54
68801;SHT31;55784;50.734;7.086;2023-06-19T10:09:14;27.16;51.35
68801;SHT31;55784;50.734;7.086;2023-06-19T10:11:52;27.07;51.52
68801;SHT31;55784;50.734;7.086;2023-06-19T10:14:23;27.29;51.58
68801;SHT31;55784;50.734;7.086;2023-06-19T10:16:49;27.25;50.57
68801;SHT31;55784;50.734;7.086;2023-06-19T10:19:17;27.37;50.25
68801;SHT31;55784;50.734;7.086;2023-06-19T10:21:48;27.49;49.94
68801;SHT31;55784;50.734;7.086;2023-06-19T10:24:16;27.36;49.79
68801;SHT31;55784;50.734;7.086;2023-06-19T10:26:43;27.42;49.63
68801;SHT31;55784;50.734;7.086;2023-06-19T10:29:16;27.50;48.98
68801;SHT31;55784;50.734;7.086;2023-06-19T10:31:42;27.35;49.46
68801;SHT31;55784;50.734;7.086;2023-06-19T10:34:08;27.60;48.48
68801;SHT31;55784;50.734;7.086;2023-06-19T10:36:33;27.70;48.59
68801;SHT31;55784;50.734;7.086;2023-06-19T10:38:59;27.43;49.33
68801;SHT31;55784;50.734;7.086;2023-06-19T10:41:25;27.81;51.99
68801;SHT31;55784;50.734;7.086;2023-06-19T10:43:58;27.74;50.47
68801;SHT31;55784;50.734;7.086;2023-06-19T10:46:25;27.64;49.08
68801;SHT31;55784;50.734;7.086;2023-06-19T10:48:54;28.05;50.42
68801;SHT31;55784;50.734;7.086;2023-06-19T10:51:24;28.21;48.93
68801;SHT31;55784;50.734;7.086;2023-06-19T10:53:53;27.93;48.96
68801;SHT31;55784;50.734;7.086;2023-06-19T10:56:20;28.11;48.21
68801;SHT31;55784;50.734;7.086;2023-06-19T10:58:46;27.70;47.78
68801;SHT31;55784;50.734;7.086;2023-06-19T11:01:11;27.56;48.27
68801;SHT31;55784;50.734;7.086;2023-06-19T11:03:37;27.66;48.48
68801;SHT31;55784;50.734;7.086;2023-06-19T11:06:02;27.87;48.06
68801;SHT31;55784;50.734;7.086;2023-06-19T11:08:28;28.24;47.90
68801;SHT31;55784;50.734;7.086;2023-06-19T11:10:55;28.63;46.31
68801;SHT31;55784;50.734;7.086;2023-06-19T11:13:20;28.98;45.76
68801;SHT31;55784;50.734;7.086;2023-06-19T11:15:50;29.22;44.90
68801;SHT31;55784;50.734;7.086;2023-06-19T11:18:17;28.71;45.46
68801;SHT31;55784;50.734;7.086;2023-06-19T11:23:10;29.35;44.60
68801;SHT31;55784;50.734;7.086;2023-06-19T11:25:37;29.33;43.89
68801;SHT31;55784;50.734;7.086;2023-06-19T11:28:04;29.14;44.94
68801;SHT31;55784;50.734;7.086;2023-06-19T11:30:31;29.38;44.30
68801;SHT31;55784;50.734;7.086;2023-06-19T11:32:57;29.34;44.33
68801;SHT31;55784;50.734;7.086;2023-06-19T11:35:22;29.29;43.84
68801;SHT31;55784;50.734;7.086;2023-06-19T11:37:47;29.43;43.52
68801;SHT31;55784;50.734;7.086;2023-06-19T11:40:13;29.10;44.50
68801;SHT31;55784;50.734;7.086;2023-06-19T11:43:02;29.58;43.94
68801;SHT31;55784;50.734;7.086;2023-06-19T11:45:28;29.68;42.72
68801;SHT31;55784;50.734;7.086;2023-06-19T11:47:54;29.49;43.15
68801;SHT31;55784;50.734;7.086;2023-06-19T11:50:19;29.51;42.57
68801;SHT31;55784;50.734;7.086;2023-06-19T11:52:46;29.77;42.07
68801;SHT31;55784;50.734;7.086;2023-06-19T11:55:13;29.78;43.25
68801;SHT31;55784;50.734;7.086;2023-06-19T11:57:39;29.74;43.03
68801;SHT31;55784;50.734;7.086;2023-06-19T12:00:14;29.03;43.78
68801;SHT31;55784;50.734;7.086;2023-06-19T12:02:39;29.38;43.47
68801;SHT31;55784;50.734;7.086;2023-06-19T12:05:05;29.68;43.36
68801;SHT31;55784;50.734;7.086;2023-06-19T12:07:30;29.92;42.48
68801;SHT31;55784;50.734;7.086;2023-06-19T12:09:56;30.08;41.99
68801;SHT31;55784;50.734;7.086;2023-06-19T12:12:24;30.18;41.95
68801;SHT31;55784;50.734;7.086;2023-06-19T12:14:51;30.26;42.07
68801;SHT31;55784;50.734;7.086;2023-06-19T12:17:16;30.01;42.25
68801;SHT31;55784;50.734;7.086;2023-06-19T12:19:41;29.46;43.17
68801;SHT31;55784;50.734;7.086;2023-06-19T12:22:07;29.58;43.03
68801;SHT31;55784;50.734;7.086;2023-06-19T12:24:32;29.74;42.91
68801;SHT31;55784;50.734;7.086;2023-06-19T12:26:57;29.81;42.31
68801;SHT31;55784;50.734;7.086;2023-06-19T12:29:22;29.91;42.67
68801;SHT31;55784;50.734;7.086;2023-06-19T12:31:48;29.91;42.63
68801;SHT31;55784;50.734;7.086;2023-06-19T12:34:13;30.02;42.54
68801;SHT31;55784;50.734;7.086;2023-06-19T12:36:39;30.55;41.94
68801;SHT31;55784;50.734;7.086;2023-06-19T12:39:05;30.86;41.11
68801;SHT31;55784;50.734;7.086;2023-06-19T12:41:38;31.10;40.55
68801;SHT31;55784;50.734;7.086;2023-06-19T12:44:03;31.16;40.35
68801;SHT31;55784;50.734;7.086;2023-06-19T12:46:28;31.24;40.33
68801;SHT31;55784;50.734;7.086;2023-06-19T12:48:54;31.20;40.54
68801;SHT31;55784;50.734;7.086;2023-06-19T12:51:19;30.65;41.56
68801;SHT31;55784;50.734;7.086;2023-06-19T12:53:44;30.16;42.07
68801;SHT31;55784;50.734;7.086;2023-06-19T12:56:10;30.51;41.64
68801;SHT31;55784;50.734;7.086;2023-06-19T12:58:35;30.83;40.79
68801;SHT31;55784;50.734;7.086;2023-06-19T13:01:01;31.26;40.71
68801;SHT31;55784;50.734;7.086;2023-06-19T13:03:26;31.62;39.85
68801;SHT31;55784;50.734;7.086;2023-06-19T13:05:51;31.68;39.29
68801;SHT31;55784;50.734;7.086;2023-06-19T13:08:19;31.57;39.30
68801;SHT31;55784;50.734;7.086;2023-06-19T13:10:45;30.77;39.92
68801;SHT31;55784;50.734;7.086;2023-06-19T13:13:12;30.58;40.47
68801;SHT31;55784;50.734;7.086;2023-06-19T13:15:37;30.35;40.43
68801;SHT31;55784;50.734;7.086;2023-06-19T13:18:02;30.99;40.20
68801;SHT31;55784;50.734;7.086;2023-06-19T13:20:28;31.64;39.38
68801;SHT31;55784;50.734;7.086;2023-06-19T13:22:54;31.33;39.07
68801;SHT31;55784;50.734;7.086;2023-06-19T13:25:20;31.51;39.21
68801;SHT31;55784;50.734;7.086;2023-06-19T13:27:48;31.78;39.42
68801;SHT31;55784;50.734;7.086;2023-06-19T13:30:13;31.50;39.25
68801;SHT31;55784;50.734;7.086;2023-06-19T13:32:39;31.40;39.06
68801;SHT31;55784;50.734;7.086;2023-06-19T13:35:05;31.92;38.88
68801;SHT31;55784;50.734;7.086;2023-06-19T13:37:33;32.23;38.51
68801;SHT31;55784;50.734;7.086;2023-06-19T13:39:59;32.40;37.58
68801;SHT31;55784;50.734;7.086;2023-06-19T13:42:25;31.47;38.23
68801;SHT31;55784;50.734;7.086;2023-06-19T13:44:50;30.90;39.19
68801;SHT31;55784;50.734;7.086;2023-06-19T13:47:15;30.60;39.63
68801;SHT31;55784;50.734;7.086;2023-06-19T13:49:41;30.76;39.42
68801;SHT31;55784;50.734;7.086;2023-06-19T13:52:06;30.82;39.20
68801;SHT31;55784;50.734;7.086;2023-06-19T13:54:32;30.70;39.57
68801;SHT31;55784;50.734;7.086;2023-06-19T13:56:59;30.86;39.44
68801;SHT31;55784;50.734;7.086;2023-06-19T13:59:27;30.80;39.67
68801;SHT31;55784;50.734;7.086;2023-06-19T14:01:52;30.86;39.68
68801;SHT31;55784;50.734;7.086;2023-06-19T14:04:18;30.89;39.77
68801;SHT31;55784;50.734;7.086;2023-06-19T14:06:44;30.87;39.78
68801;SHT31;55784;50.734;7.086;2023-06-19T14:09:09;30.97;39.90
68801;SHT31;55784;50.734;7.086;2023-06-19T14:11:35;30.62;40.20
68801;SHT31;55784;50.734;7.086;2023-06-19T14:14:00;30.73;40.04
68801;SHT31;55784;50.734;7.086;2023-06-19T14:16:25;31.07;39.66
68801;SHT31;55784;50.734;7.086;2023-06-19T14:18:51;30.87;39.95
68801;SHT31;55784;50.734;7.086;2023-06-19T14:21:16;30.72;40.14
68801;SHT31;55784;50.734;7.086;2023-06-19T14:23:41;30.80;40.16
68801;SHT31;55784;50.734;7.086;2023-06-19T14:26:10;30.73;39.69
68801;SHT31;55784;50.734;7.086;2023-06-19T14:28:37;30.49;40.14
68801;SHT31;55784;50.734;7.086;2023-06-19T14:31:03;30.53;40.11
68801;SHT31;55784;50.734;7.086;2023-06-19T14:33:29;30.83;39.44
68801;SHT31;55784;50.734;7.086;2023-06-19T14:35:55;31.06;39.25
68801;SHT31;55784;50.734;7.086;2023-06-19T14:38:20;31.41;39.08
68801;SHT31;55784;50.734;7.086;2023-06-19T14:40:45;31.80;38.61
68801;SHT31;55784;50.734;7.086;2023-06-19T14:43:11;31.95;38.20
68801;SHT31;55784;50.734;7.086;2023-06-19T14:45:36;32.19;37.95
68801;SHT31;55784;50.734;7.086;2023-06-19T14:48:03;31.99;37.81
68801;SHT31;55784;50.734;7.086;2023-06-19T14:50:29;32.02;38.09
68801;SHT31;55784;50.734;7.086;2023-06-19T14:52:54;32.06;37.64
68801;SHT31;55784;50.734;7.086;2023-06-19T14:55:20;32.13;37.91
68801;SHT31;55784;50.734;7.086;2023-06-19T14:57:46;32.18;37.66
68801;SHT31;55784;50.734;7.086;2023-06-19T15:00:12;32.08;38.37
68801;SHT31;55784;50.734;7.086;2023-06-19T15:02:37;32.32;37.85
68801;SHT31;55784;50.734;7.086;2023-06-19T15:05:03;32.13;37.76
68801;SHT31;55784;50.734;7.086;2023-06-19T15:07:28;31.74;38.65
68801;SHT31;55784;50.734;7.086;2023-06-19T15:09:54;31.13;39.70
68801;SHT31;55784;50.734;7.086;2023-06-19T15:12:19;31.45;39.20
68801;SHT31;55784;50.734;7.086;2023-06-19T15:14:44;31.65;38.88
68801;SHT31;55784;50.734;7.086;2023-06-19T15:17:13;31.70;38.14
68801;SHT31;55784;50.734;7.086;2023-06-19T15:19:44;31.04;39.56
68801;SHT31;55784;50.734;7.086;2023-06-19T15:22:09;30.55;40.64
68801;SHT31;55784;50.734;7.086;2023-06-19T15:24:34;30.38;40.87
68801;SHT31;55784;50.734;7.086;2023-06-19T15:27:00;30.89;40.34
68801;SHT31;55784;50.734;7.086;2023-06-19T15:29:27;30.75;39.89